sensor_id;sensor_type;location;lat;lon;timestamp;temperature;humidity
1806;DHT22;901;48.142;11.516;2023-01-09T00:02:13;7.20;99.90
1806;DHT22;901;48.142;11.516;2023-01-09T00:04:39;7.20;99.90
1806;DHT22;901;48.142;11.516;2023-01-09T00:07:06;7.10;99.90
1806;DHT22;901;48.142;11.516;2023-01-09T00:09:33;7.10;99.90
1806;DHT22;901;48.142;11.516;2023-01-09T00:12:00;7.00;99.90
1806;DHT22;901;48.142;11.516;2023-01-09T00:14:28;7.00;99.90
1806;DHT22;901;48.142;11.516;2023-01-09T00:16:56;7.00;99.90
1806;DHT22;901;48.142;11.516;2023-01-09T00:19:23;6.90;99.90
1806;DHT22;901;48.142;11.516;2023-01-09T00:21:50;6.90;99.90
1806;DHT22;901;48.142;11.516;2023-01-09T00:24:16;6.90;99.90
1806;DHT22;901;48.142;11.516;2023-01-09T00:26:43;6.90;99.90
1806;DHT22;901;48.142;11.516;2023-01-09T00:29:10;6.80;99.90
1806;DHT22;901;48.142;11.516;2023-01-09T00:31:37;6.90;99.90
1806;DHT22;901;48.142;11.516;2023-01-09T00:34:06;6.80;99.90
1806;DHT22;901;48.142;11.516;2023-01-09T00:36:35;6.80;99.90
1806;DHT22;901;48.142;11.516;2023-01-09T00:39:02;6.80;99.90
1806;DHT22;901;48.142;11.516;2023-01-09T00:41:31;6.80;99.90
1806;DHT22;901;48.142;11.516;2023-01-09T00:44:02;6.80;99.90
1806;DHT22;901;48.142;11.516;2023-01-09T00:46:33;6.90;99.90
1806;DHT22;901;48.142;11.516;2023-01-09T00:49:02;6.80;99.90
1806;DHT22;901;48.142;11.516;2023-01-09T00:51:32;6.80;99.90
1806;DHT22;901;48.142;11.516;2023-01-09T00:53:58;6.90;99.90
1806;DHT22;901;48.142;11.516;2023-01-09T00:56:27;6.80;99.90
1806;DHT22;901;48.142;11.516;2023-01-09T00:58:54;6.90;99.90
1806;DHT22;901;48.142;11.516;2023-01-09T01:01:21;6.80;99.90
1806;DHT22;901;48.142;11.516;2023-01-09T01:03:48;6.80;99.90
1806;DHT22;901;48.142;11.516;2023-01-09T01:06:15;6.80;99.90
1806;DHT22;901;48.142;11.516;2023-01-09T01:09:00;6.80;99.90
1806;DHT22;901;48.142;11.516;2023-01-09T01:11:27;6.80;99.90
1806;DHT22;901;48.142;11.516;2023-01-09T01:13:55;6.80;99.90
1806;DHT22;901;48.142;11.516;2023-01-09T01:16:21;6.70;99.90
1806;DHT22;901;48.142;11.516;2023-01-09T01:18:48;6.70;99.90
1806;DHT22;901;48.142;11.516;2023-01-09T01:21:16;6.70;99.90
1806;DHT22;901;48.142;11.516;2023-01-09T01:23:43;6.70;99.90
1806;DHT22;901;48.142;11.516;2023-01-09T01:26:14;6.70;99.90
1806;DHT22;901;48.142;11.516;2023-01-09T01:28:41;6.90;99.90
1806;DHT22;901;48.142;11.516;2023-01-09T01:31:15;6.80;99.90
1806;DHT22;901;48.142;11.516;2023-01-09T01:33:42;6.70;99.90
1806;DHT22;901;48.142;11.516;2023-01-09T01:36:09;6.70;99.90
1806;DHT22;901;48.142;11.516;2023-01-09T01:38:36;6.80;99.90
1806;DHT22;901;48.142;11.516;2023-01-09T01:41:03;6.80;99.90
1806;DHT22;901;48.142;11.516;2023-01-09T01:43:51;6.80;99.90
1806;DHT22;901;48.142;11.516;2023-01-09T01:46:18;6.80;99.90
1806;DHT22;901;48.142;11.516;2023-01-09T01:48:45;6.90;99.90
1806;DHT22;901;48.142;11.516;2023-01-09T01:51:13;6.80;99.90
1806;DHT22;901;48.142;11.516;2023-01-09T01:53:44;6.80;99.90
1806;DHT22;901;48.142;11.516;2023-01-09T01:56:15;6.80;99.90
1806;DHT22;901;48.142;11.516;2023-01-09T01:58:46;6.80;99.90
1806;DHT22;901;48.142;11.516;2023-01-09T02:01:16;6.80;99.90
1806;DHT22;901;48.142;11.516;2023-01-09T02:03:44;6.80;99.90
1806;DHT22;901;48.142;11.516;2023-01-09T02:06:11;6.80;99.90
1806;DHT22;901;48.142;11.516;2023-01-09T02:08:39;6.80;99.90
1806;DHT22;901;48.142;11.516;2023-01-09T02:11:06;6.70;99.90
1806;DHT22;901;48.142;11.516;2023-01-09T02:13:35;6.70;99.90
1806;DHT22;901;48.142;11.516;2023-01-09T02:16:16;6.80;99.90
1806;DHT22;901;48.142;11.516;2023-01-09T02:18:48;6.80;99.90
1806;DHT22;901;48.142;11.516;2023-01-09T02:21:35;6.70;99.90
1806;DHT22;901;48.142;11.516;2023-01-09T02:24:27;6.70;99.90
1806;DHT22;901;48.142;11.516;2023-01-09T02:27:06;6.70;99.90
1806;DHT22;901;48.142;11.516;2023-01-09T02:32:43;6.80;99.90
1806;DHT22;901;48.142;11.516;2023-01-09T02:35:26;6.80;99.90
1806;DHT22;901;48.142;11.516;2023-01-09T02:38:01;6.70;99.90
1806;DHT22;901;48.142;11.516;2023-01-09T02:40:32;6.80;99.90
1806;DHT22;901;48.142;11.516;2023-01-09T02:43:00;6.80;99.90
1806;DHT22;901;48.142;11.516;2023-01-09T02:45:27;6.80;99.90
1806;DHT22;901;48.142;11.516;2023-01-09T02:47:55;6.80;99.90
1806;DHT22;901;48.142;11.516;2023-01-09T02:50:26;6.80;99.90
1806;DHT22;901;48.142;11.516;2023-01-09T02:53:28;6.80;99.90
1806;DHT22;901;48.142;11.516;2023-01-09T02:56:08;6.80;99.90
1806;DHT22;901;48.142;11.516;2023-01-09T03:01:53;6.80;99.90
1806;DHT22;901;48.142;11.516;2023-01-09T03:04:28;6.90;99.90
1806;DHT22;901;48.142;11.516;2023-01-09T03:07:01;6.90;99.90
1806;DHT22;901;48.142;11.516;2023-01-09T03:09:32;6.90;99.90
1806;DHT22;901;48.142;11.516;2023-01-09T03:12:04;6.90;99.90
1806;DHT22;901;48.142;11.516;2023-01-09T03:14:34;6.90;99.90
1806;DHT22;901;48.142;11.516;2023-01-09T03:17:07;7.00;99.90
1806;DHT22;901;48.142;11.516;2023-01-09T03:19:38;6.90;99.90
1806;DHT22;901;48.142;11.516;2023-01-09T03:22:07;6.80;99.90
1806;DHT22;901;48.142;11.516;2023-01-09T03:24:34;6.90;99.90
1806;DHT22;901;48.142;11.516;2023-01-09T03:27:02;6.90;99.90
1806;DHT22;901;48.142;11.516;2023-01-09T03:29:29;6.90;99.90
1806;DHT22;901;48.142;11.516;2023-01-09T03:31:56;6.90;99.90
1806;DHT22;901;48.142;11.516;2023-01-09T03:34:23;7.00;99.90
1806;DHT22;901;48.142;11.516;2023-01-09T03:36:51;6.90;99.90
1806;DHT22;901;48.142;11.516;2023-01-09T03:39:18;6.90;99.90
1806;DHT22;901;48.142;11.516;2023-01-09T03:41:45;7.00;99.90
1806;DHT22;901;48.142;11.516;2023-01-09T03:44:11;7.00;99.90
1806;DHT22;901;48.142;11.516;2023-01-09T03:46:38;6.90;99.90
1806;DHT22;901;48.142;11.516;2023-01-09T03:49:05;6.90;99.90
1806;DHT22;901;48.142;11.516;2023-01-09T03:51:32;6.80;99.90
1806;DHT22;901;48.142;11.516;2023-01-09T03:54:00;6.70;99.90
1806;DHT22;901;48.142;11.516;2023-01-09T03:56:27;6.70;99.90
1806;DHT22;901;48.142;11.516;2023-01-09T03:58:53;6.60;99.90
1806;DHT22;901;48.142;11.516;2023-01-09T04:01:20;6.50;99.90
1806;DHT22;901;48.142;11.516;2023-01-09T04:03:47;6.50;99.90
1806;DHT22;901;48.142;11.516;2023-01-09T04:06:14;6.50;99.90
1806;DHT22;901;48.142;11.516;2023-01-09T04:08:40;6.50;99.90
1806;DHT22;901;48.142;11.516;2023-01-09T04:11:08;6.50;99.90
1806;DHT22;901;48.142;11.516;2023-01-09T04:13:35;6.50;99.90
1806;DHT22;901;48.142;11.516;2023-01-09T04:16:03;6.60;99.90
1806;DHT22;901;48.142;11.516;2023-01-09T04:18:29;6.60;99.90
1806;DHT22;901;48.142;11.516;2023-01-09T04:20:56;6.70;99.90
1806;DHT22;901;48.142;11.516;2023-01-09T04:23:23;6.70;99.90
1806;DHT22;901;48.142;11.516;2023-01-09T04:25:50;6.80;99.90
1806;DHT22;901;48.142;11.516;2023-01-09T04:28:18;6.80;99.90
1806;DHT22;901;48.142;11.516;2023-01-09T04:30:45;6.90;99.90
1806;DHT22;901;48.142;11.516;2023-01-09T04:33:12;6.90;99.90
1806;DHT22;901;48.142;11.516;2023-01-09T04:35:38;6.90;99.90
1806;DHT22;901;48.142;11.516;2023-01-09T04:38:05;7.00;99.90
1806;DHT22;901;48.142;11.516;2023-01-09T04:40:32;7.00;99.90
1806;DHT22;901;48.142;11.516;2023-01-09T04:42:59;7.10;99.90
1806;DHT22;901;48.142;11.516;2023-01-09T04:45:27;7.10;99.90
1806;DHT22;901;48.142;11.516;2023-01-09T04:47:54;7.20;99.90
1806;DHT22;901;48.142;11.516;2023-01-09T04:50:20;7.30;99.90
1806;DHT22;901;48.142;11.516;2023-01-09T04:52:47;7.30;99.90
1806;DHT22;901;48.142;11.516;2023-01-09T04:55:14;7.30;99.90
1806;DHT22;901;48.142;11.516;2023-01-09T04:57:41;7.30;99.90
1806;DHT22;901;48.142;11.516;2023-01-09T05:00:09;7.40;99.90
1806;DHT22;901;48.142;11.516;2023-01-09T05:02:38;7.40;99.90
1806;DHT22;901;48.142;11.516;2023-01-09T05:05:06;7.50;99.90
1806;DHT22;901;48.142;11.516;2023-01-09T05:07:33;7.50;99.90
1806;DHT22;901;48.142;11.516;2023-01-09T05:10:01;7.50;99.90
1806;DHT22;901;48.142;11.516;2023-01-09T05:12:28;7.50;99.90
1806;DHT22;901;48.142;11.516;2023-01-09T05:14:55;7.50;99.90
1806;DHT22;901;48.142;11.516;2023-01-09T05:17:22;7.50;99.90
1806;DHT22;901;48.142;11.516;2023-01-09T05:19:50;7.60;99.90
1806;DHT22;901;48.142;11.516;2023-01-09T05:22:17;7.60;99.90
1806;DHT22;901;48.142;11.516;2023-01-09T05:24:44;7.60;99.90
1806;DHT22;901;48.142;11.516;2023-01-09T05:27:11;7.50;99.90
1806;DHT22;901;48.142;11.516;2023-01-09T05:29:37;7.60;99.90
1806;DHT22;901;48.142;11.516;2023-01-09T05:32:04;7.70;99.90
1806;DHT22;901;48.142;11.516;2023-01-09T05:34:31;7.70;99.90
1806;DHT22;901;48.142;11.516;2023-01-09T05:36:59;7.70;99.90
1806;DHT22;901;48.142;11.516;2023-01-09T05:39:26;7.70;99.90
1806;DHT22;901;48.142;11.516;2023-01-09T05:41:53;7.70;99.90
1806;DHT22;901;48.142;11.516;2023-01-09T05:44:19;7.60;99.90
1806;DHT22;901;48.142;11.516;2023-01-09T05:46:46;7.70;99.90
1806;DHT22;901;48.142;11.516;2023-01-09T05:49:13;7.70;99.90
1806;DHT22;901;48.142;11.516;2023-01-09T05:51:40;7.60;99.90
1806;DHT22;901;48.142;11.516;2023-01-09T05:54:08;7.60;99.90
1806;DHT22;901;48.142;11.516;2023-01-09T05:56:35;7.60;99.90
1806;DHT22;901;48.142;11.516;2023-01-09T05:59:01;7.60;99.90
1806;DHT22;901;48.142;11.516;2023-01-09T06:01:28;7.60;99.90
1806;DHT22;901;48.142;11.516;2023-01-09T06:03:55;7.60;99.90
1806;DHT22;901;48.142;11.516;2023-01-09T06:06:22;7.60;99.90
1806;DHT22;901;48.142;11.516;2023-01-09T06:08:49;7.70;99.90
1806;DHT22;901;48.142;11.516;2023-01-09T06:11:17;7.60;99.90
1806;DHT22;901;48.142;11.516;2023-01-09T06:13:44;7.60;99.90
1806;DHT22;901;48.142;11.516;2023-01-09T06:16:10;7.60;99.90
1806;DHT22;901;48.142;11.516;2023-01-09T06:18:38;7.60;99.90
1806;DHT22;901;48.142;11.516;2023-01-09T06:21:05;7.50;99.90
1806;DHT22;901;48.142;11.516;2023-01-09T06:23:32;7.60;99.90
1806;DHT22;901;48.142;11.516;2023-01-09T06:25:58;7.50;99.90
1806;DHT22;901;48.142;11.516;2023-01-09T06:28:26;7.40;99.90
1806;DHT22;901;48.142;11.516;2023-01-09T06:30:53;7.40;99.90
1806;DHT22;901;48.142;11.516;2023-01-09T06:33:20;7.40;99.90
1806;DHT22;901;48.142;11.516;2023-01-09T06:35:47;7.30;99.90
1806;DHT22;901;48.142;11.516;2023-01-09T06:38:14;7.20;99.90
1806;DHT22;901;48.142;11.516;2023-01-09T06:40:40;7.30;99.90
1806;DHT22;901;48.142;11.516;2023-01-09T06:43:07;7.20;99.90
1806;DHT22;901;48.142;11.516;2023-01-09T06:45:35;7.20;99.90
1806;DHT22;901;48.142;11.516;2023-01-09T06:48:03;7.20;99.90
1806;DHT22;901;48.142;11.516;2023-01-09T06:50:29;7.10;99.90
1806;DHT22;901;48.142;11.516;2023-01-09T06:52:56;7.10;99.90
1806;DHT22;901;48.142;11.516;2023-01-09T06:55:23;7.10;99.90
1806;DHT22;901;48.142;11.516;2023-01-09T06:57:50;7.00;99.90
1806;DHT22;901;48.142;11.516;2023-01-09T07:00:18;6.90;99.90
1806;DHT22;901;48.142;11.516;2023-01-09T07:02:46;6.90;99.90
1806;DHT22;901;48.142;11.516;2023-01-09T07:05:13;6.90;99.90
1806;DHT22;901;48.142;11.516;2023-01-09T07:07:40;6.90;99.90
1806;DHT22;901;48.142;11.516;2023-01-09T07:10:08;7.00;99.90
1806;DHT22;901;48.142;11.516;2023-01-09T07:12:35;6.90;99.90
1806;DHT22;901;48.142;11.516;2023-01-09T07:15:03;6.90;99.90
1806;DHT22;901;48.142;11.516;2023-01-09T07:17:30;6.90;99.90
1806;DHT22;901;48.142;11.516;2023-01-09T07:19:58;6.90;99.90
1806;DHT22;901;48.142;11.516;2023-01-09T07:22:25;6.90;99.90
1806;DHT22;901;48.142;11.516;2023-01-09T07:24:52;6.90;99.90
1806;DHT22;901;48.142;11.516;2023-01-09T07:27:19;6.90;99.90
1806;DHT22;901;48.142;11.516;2023-01-09T07:29:45;6.90;99.90
1806;DHT22;901;48.142;11.516;2023-01-09T07:32:12;6.90;99.90
1806;DHT22;901;48.142;11.516;2023-01-09T07:34:39;6.90;99.90
1806;DHT22;901;48.142;11.516;2023-01-09T07:37:07;6.90;99.90
1806;DHT22;901;48.142;11.516;2023-01-09T07:39:34;6.90;99.90
1806;DHT22;901;48.142;11.516;2023-01-09T07:42:01;6.90;99.90
1806;DHT22;901;48.142;11.516;2023-01-09T07:44:28;6.90;99.90
1806;DHT22;901;48.142;11.516;2023-01-09T07:46:55;6.80;99.90
1806;DHT22;901;48.142;11.516;2023-01-09T07:49:21;6.80;99.90
1806;DHT22;901;48.142;11.516;2023-01-09T07:51:48;6.70;99.90
1806;DHT22;901;48.142;11.516;2023-01-09T07:54:16;6.70;99.90
1806;DHT22;901;48.142;11.516;2023-01-09T07:56:43;6.70;99.90
1806;DHT22;901;48.142;11.516;2023-01-09T07:59:10;6.60;99.90
1806;DHT22;901;48.142;11.516;2023-01-09T08:01:37;6.50;99.90
1806;DHT22;901;48.142;11.516;2023-01-09T08:04:04;6.60;99.90
1806;DHT22;901;48.142;11.516;2023-01-09T08:06:31;6.50;99.90
1806;DHT22;901;48.142;11.516;2023-01-09T08:08:58;6.50;99.90
1806;DHT22;901;48.142;11.516;2023-01-09T08:11:26;6.50;99.90
1806;DHT22;901;48.142;11.516;2023-01-09T08:13:53;6.40;99.90
1806;DHT22;901;48.142;11.516;2023-01-09T08:16:20;6.50;99.90
1806;DHT22;901;48.142;11.516;2023-01-09T08:18:46;6.50;99.90
1806;DHT22;901;48.142;11.516;2023-01-09T08:21:13;6.30;99.90
1806;DHT22;901;48.142;11.516;2023-01-09T08:23:40;6.30;99.90
1806;DHT22;901;48.142;11.516;2023-01-09T08:26:07;6.30;99.90
1806;DHT22;901;48.142;11.516;2023-01-09T08:28:35;6.40;99.90
1806;DHT22;901;48.142;11.516;2023-01-09T08:31:02;6.40;99.90
1806;DHT22;901;48.142;11.516;2023-01-09T08:33:28;6.40;99.90
1806;DHT22;901;48.142;11.516;2023-01-09T08:35:56;6.40;99.90
1806;DHT22;901;48.142;11.516;2023-01-09T08:38:23;6.40;99.90
1806;DHT22;901;48.142;11.516;2023-01-09T08:40:50;6.50;99.90
1806;DHT22;901;48.142;11.516;2023-01-09T08:43:17;6.70;99.90
1806;DHT22;901;48.142;11.516;2023-01-09T08:46:03;6.70;99.90
1806;DHT22;901;48.142;11.516;2023-01-09T08:48:48;6.70;99.90
1806;DHT22;901;48.142;11.516;2023-01-09T08:51:15;6.90;99.90
1806;DHT22;901;48.142;11.516;2023-01-09T08:53:41;7.00;99.90
1806;DHT22;901;48.142;11.516;2023-01-09T08:56:08;7.00;99.90
1806;DHT22;901;48.142;11.516;2023-01-09T08:58:35;7.00;99.90
1806;DHT22;901;48.142;11.516;2023-01-09T09:01:05;7.00;99.90
1806;DHT22;901;48.142;11.516;2023-01-09T09:03:32;7.00;99.90
1806;DHT22;901;48.142;11.516;2023-01-09T09:05:59;7.00;99.90
1806;DHT22;901;48.142;11.516;2023-01-09T09:08:26;7.10;99.90
1806;DHT22;901;48.142;11.516;2023-01-09T09:10:53;6.90;99.90
1806;DHT22;901;48.142;11.516;2023-01-09T09:13:21;7.00;99.90
1806;DHT22;901;48.142;11.516;2023-01-09T09:15:48;7.10;99.90
1806;DHT22;901;48.142;11.516;2023-01-09T09:18:16;7.00;99.90
1806;DHT22;901;48.142;11.516;2023-01-09T09:20:43;6.90;99.90
1806;DHT22;901;48.142;11.516;2023-01-09T09:23:10;7.00;99.90
1806;DHT22;901;48.142;11.516;2023-01-09T09:25:36;7.00;99.90
1806;DHT22;901;48.142;11.516;2023-01-09T09:28:04;7.10;99.90
1806;DHT22;901;48.142;11.516;2023-01-09T09:30:31;7.00;99.90
1806;DHT22;901;48.142;11.516;2023-01-09T09:32:58;7.00;99.90
1806;DHT22;901;48.142;11.516;2023-01-09T09:35:26;7.00;99.90
1806;DHT22;901;48.142;11.516;2023-01-09T09:37:55;7.00;99.90
1806;DHT22;901;48.142;11.516;2023-01-09T09:40:41;7.00;99.90
1806;DHT22;901;48.142;11.516;2023-01-09T09:43:33;7.00;99.90
1806;DHT22;901;48.142;11.516;2023-01-09T09:46:28;7.00;99.90
1806;DHT22;901;48.142;11.516;2023-01-09T09:49:01;7.00;99.90
1806;DHT22;901;48.142;11.516;2023-01-09T09:51:46;7.00;99.90
1806;DHT22;901;48.142;11.516;2023-01-09T09:54:19;7.00;99.90
1806;DHT22;901;48.142;11.516;2023-01-09T09:56:53;7.10;99.90
1806;DHT22;901;48.142;11.516;2023-01-09T09:59:23;7.10;99.90
1806;DHT22;901;48.142;11.516;2023-01-09T10:01:54;7.20;99.90
1806;DHT22;901;48.142;11.516;2023-01-09T10:04:24;7.20;99.90
1806;DHT22;901;48.142;11.516;2023-01-09T10:06:56;7.20;99.90
1806;DHT22;901;48.142;11.516;2023-01-09T10:09:32;7.20;99.90
1806;DHT22;901;48.142;11.516;2023-01-09T10:12:09;7.20;99.90
1806;DHT22;901;48.142;11.516;2023-01-09T10:14:38;7.30;99.90
1806;DHT22;901;48.142;11.516;2023-01-09T10:17:21;7.40;99.90
1806;DHT22;901;48.142;11.516;2023-01-09T10:20:07;7.50;99.90
1806;DHT22;901;48.142;11.516;2023-01-09T10:22:46;7.50;99.90
1806;DHT22;901;48.142;11.516;2023-01-09T10:25:21;7.50;99.90
1806;DHT22;901;48.142;11.516;2023-01-09T10:28:03;7.50;99.90
1806;DHT22;901;48.142;11.516;2023-01-09T10:30:40;7.60;99.90
1806;DHT22;901;48.142;11.516;2023-01-09T10:33:21;7.70;99.90
1806;DHT22;901;48.142;11.516;2023-01-09T10:36:13;7.70;99.90
1806;DHT22;901;48.142;11.516;2023-01-09T10:38:47;7.70;99.90
1806;DHT22;901;48.142;11.516;2023-01-09T10:41:19;7.70;99.90
1806;DHT22;901;48.142;11.516;2023-01-09T10:43:52;7.80;99.90
1806;DHT22;901;48.142;11.516;2023-01-09T10:46:23;7.80;99.90
1806;DHT22;901;48.142;11.516;2023-01-09T10:48:55;7.80;99.90
1806;DHT22;901;48.142;11.516;2023-01-09T10:51:28;7.80;99.90
1806;DHT22;901;48.142;11.516;2023-01-09T10:53:59;7.90;99.90
1806;DHT22;901;48.142;11.516;2023-01-09T10:56:28;7.90;99.90
1806;DHT22;901;48.142;11.516;2023-01-09T10:58:56;8.00;99.90
1806;DHT22;901;48.142;11.516;2023-01-09T11:01:25;8.10;99.90
1806;DHT22;901;48.142;11.516;2023-01-09T11:03:52;8.30;99.90
1806;DHT22;901;48.142;11.516;2023-01-09T11:06:22;8.30;99.90
1806;DHT22;901;48.142;11.516;2023-01-09T11:08:53;8.30;99.90
1806;DHT22;901;48.142;11.516;2023-01-09T11:11:32;8.30;99.90
1806;DHT22;901;48.142;11.516;2023-01-09T11:14:04;8.20;99.90
1806;DHT22;901;48.142;11.516;2023-01-09T11:16:32;8.20;99.90
1806;DHT22;901;48.142;11.516;2023-01-09T11:19:00;8.20;99.90
1806;DHT22;901;48.142;11.516;2023-01-09T11:21:30;8.20;99.90
1806;DHT22;901;48.142;11.516;2023-01-09T11:24:26;8.20;99.90
1806;DHT22;901;48.142;11.516;2023-01-09T11:27:16;8.30;99.90
1806;DHT22;901;48.142;11.516;2023-01-09T11:30:04;8.30;99.90
1806;DHT22;901;48.142;11.516;2023-01-09T11:32:32;8.30;99.90
1806;DHT22;901;48.142;11.516;2023-01-09T11:35:00;8.20;99.90
1806;DHT22;901;48.142;11.516;2023-01-09T11:37:28;8.30;99.90
1806;DHT22;901;48.142;11.516;2023-01-09T11:39:56;8.30;99.90
1806;DHT22;901;48.142;11.516;2023-01-09T11:42:27;8.30;99.90
1806;DHT22;901;48.142;11.516;2023-01-09T11:45:14;8.30;99.90
1806;DHT22;901;48.142;11.516;2023-01-09T11:47:42;8.30;99.90
1806;DHT22;901;48.142;11.516;2023-01-09T11:50:19;8.40;99.90
1806;DHT22;901;48.142;11.516;2023-01-09T11:53:10;8.40;99.90
1806;DHT22;901;48.142;11.516;2023-01-09T11:55:41;8.40;99.90
1806;DHT22;901;48.142;11.516;2023-01-09T11:58:13;8.40;99.90
1806;DHT22;901;48.142;11.516;2023-01-09T12:00:46;8.50;99.90
1806;DHT22;901;48.142;11.516;2023-01-09T12:03:19;8.60;99.90
1806;DHT22;901;48.142;11.516;2023-01-09T12:05:53;8.60;99.90
1806;DHT22;901;48.142;11.516;2023-01-09T12:08:31;8.60;99.90
1806;DHT22;901;48.142;11.516;2023-01-09T12:11:16;8.60;99.90
1806;DHT22;901;48.142;11.516;2023-01-09T12:14:13;8.70;99.90
1806;DHT22;901;48.142;11.516;2023-01-09T12:16:53;8.70;99.90
1806;DHT22;901;48.142;11.516;2023-01-09T12:19:47;8.80;99.90
1806;DHT22;901;48.142;11.516;2023-01-09T12:22:28;8.80;99.90
1806;DHT22;901;48.142;11.516;2023-01-09T12:25:05;8.70;99.90
1806;DHT22;901;48.142;11.516;2023-01-09T12:30:48;8.70;99.90
1806;DHT22;901;48.142;11.516;2023-01-09T12:33:28;8.80;99.90
1806;DHT22;901;48.142;11.516;2023-01-09T12:36:13;8.60;99.90
1806;DHT22;901;48.142;11.516;2023-01-09T12:38:47;8.70;99.90
1806;DHT22;901;48.142;11.516;2023-01-09T12:41:44;8.60;99.90
1806;DHT22;901;48.142;11.516;2023-01-09T12:44:27;8.60;99.90
1806;DHT22;901;48.142;11.516;2023-01-09T12:47:06;8.60;99.90
1806;DHT22;901;48.142;11.516;2023-01-09T12:49:41;8.60;99.90
1806;DHT22;901;48.142;11.516;2023-01-09T12:52:15;8.60;99.90
1806;DHT22;901;48.142;11.516;2023-01-09T12:54:46;8.60;99.90
1806;DHT22;901;48.142;11.516;2023-01-09T12:57:20;8.60;99.90
1806;DHT22;901;48.142;11.516;2023-01-09T12:59:51;8.60;99.90
1806;DHT22;901;48.142;11.516;2023-01-09T13:02:24;8.60;99.90
1806;DHT22;901;48.142;11.516;2023-01-09T13:04:56;8.60;99.90
1806;DHT22;901;48.142;11.516;2023-01-09T13:07:27;8.60;99.90
1806;DHT22;901;48.142;11.516;2023-01-09T13:09:58;8.70;99.90
1806;DHT22;901;48.142;11.516;2023-01-09T13:12:31;8.60;99.90
1806;DHT22;901;48.142;11.516;2023-01-09T13:15:01;8.70;99.90
1806;DHT22;901;48.142;11.516;2023-01-09T13:17:37;8.70;99.90
1806;DHT22;901;48.142;11.516;2023-01-09T13:20:18;8.70;99.90
1806;DHT22;901;48.142;11.516;2023-01-09T13:22:47;8.70;99.90
1806;DHT22;901;48.142;11.516;2023-01-09T13:25:37;8.70;99.90
1806;DHT22;901;48.142;11.516;2023-01-09T13:28:10;8.70;99.90
1806;DHT22;901;48.142;11.516;2023-01-09T13:30:59;8.60;99.90
1806;DHT22;901;48.142;11.516;2023-01-09T13:33:34;8.50;99.90
1806;DHT22;901;48.142;11.516;2023-01-09T13:36:02;8.40;99.90
1806;DHT22;901;48.142;11.516;2023-01-09T13:38:30;8.40;99.90
1806;DHT22;901;48.142;11.516;2023-01-09T13:41:11;8.30;99.90
1806;DHT22;901;48.142;11.516;2023-01-09T13:43:57;8.20;99.90
1806;DHT22;901;48.142;11.516;2023-01-09T13:46:37;8.20;99.90
1806;DHT22;901;48.142;11.516;2023-01-09T13:49:23;8.10;99.90
1806;DHT22;901;48.142;11.516;2023-01-09T13:52:02;8.10;99.90
1806;DHT22;901;48.142;11.516;2023-01-09T13:55:00;8.10;99.90
1806;DHT22;901;48.142;11.516;2023-01-09T13:57:30;8.20;99.90
1806;DHT22;901;48.142;11.516;2023-01-09T14:03:16;8.10;99.90
1806;DHT22;901;48.142;11.516;2023-01-09T14:06:19;8.10;99.90
1806;DHT22;901;48.142;11.516;2023-01-09T14:08:49;8.20;99.90
1806;DHT22;901;48.142;11.516;2023-01-09T14:11:29;8.20;99.90
1806;DHT22;901;48.142;11.516;2023-01-09T14:14:05;8.30;99.90
1806;DHT22;901;48.142;11.516;2023-01-09T14:16:34;8.20;99.90
1806;DHT22;901;48.142;11.516;2023-01-09T14:19:06;8.20;99.90
1806;DHT22;901;48.142;11.516;2023-01-09T14:21:51;8.10;99.90
1806;DHT22;901;48.142;11.516;2023-01-09T14:24:21;8.10;99.90
1806;DHT22;901;48.142;11.516;2023-01-09T14:26:50;8.10;99.90
1806;DHT22;901;48.142;11.516;2023-01-09T14:29:39;8.10;99.90
1806;DHT22;901;48.142;11.516;2023-01-09T14:32:43;8.10;99.90
1806;DHT22;901;48.142;11.516;2023-01-09T14:35:15;8.10;99.90
1806;DHT22;901;48.142;11.516;2023-01-09T14:37:49;8.10;99.90
1806;DHT22;901;48.142;11.516;2023-01-09T14:40:21;8.00;99.90
1806;DHT22;901;48.142;11.516;2023-01-09T14:42:52;8.10;99.90
1806;DHT22;901;48.142;11.516;2023-01-09T14:45:21;8.10;99.90
1806;DHT22;901;48.142;11.516;2023-01-09T14:47:53;8.10;99.90
1806;DHT22;901;48.142;11.516;2023-01-09T14:50:27;8.10;99.90
1806;DHT22;901;48.142;11.516;2023-01-09T14:53:01;8.10;99.90
1806;DHT22;901;48.142;11.516;2023-01-09T14:55:34;8.00;99.90
1806;DHT22;901;48.142;11.516;2023-01-09T14:58:18;8.00;99.90
1806;DHT22;901;48.142;11.516;2023-01-09T15:00:48;8.00;99.90
1806;DHT22;901;48.142;11.516;2023-01-09T15:03:16;8.00;99.90
1806;DHT22;901;48.142;11.516;2023-01-09T15:05:45;8.00;99.90
1806;DHT22;901;48.142;11.516;2023-01-09T15:08:17;8.00;99.90
1806;DHT22;901;48.142;11.516;2023-01-09T15:10:47;7.80;99.90
1806;DHT22;901;48.142;11.516;2023-01-09T15:13:18;7.80;99.90
1806;DHT22;901;48.142;11.516;2023-01-09T15:15:47;7.90;99.90
1806;DHT22;901;48.142;11.516;2023-01-09T15:18:20;7.90;99.90
1806;DHT22;901;48.142;11.516;2023-01-09T15:20:52;7.90;99.90
1806;DHT22;901;48.142;11.516;2023-01-09T15:23:25;7.90;99.90
1806;DHT22;901;48.142;11.516;2023-01-09T15:25:54;7.90;99.90
1806;DHT22;901;48.142;11.516;2023-01-09T15:28:26;7.80;99.90
1806;DHT22;901;48.142;11.516;2023-01-09T15:30:57;7.90;99.90
1806;DHT22;901;48.142;11.516;2023-01-09T15:33:25;7.90;99.90
1806;DHT22;901;48.142;11.516;2023-01-09T15:35:52;7.90;99.90
1806;DHT22;901;48.142;11.516;2023-01-09T15:38:26;7.80;99.90
1806;DHT22;901;48.142;11.516;2023-01-09T15:40:56;7.80;99.90
1806;DHT22;901;48.142;11.516;2023-01-09T15:43:24;7.70;99.90
1806;DHT22;901;48.142;11.516;2023-01-09T15:45:52;7.70;99.90
1806;DHT22;901;48.142;11.516;2023-01-09T15:48:24;7.70;99.90
1806;DHT22;901;48.142;11.516;2023-01-09T15:50:54;7.50;99.90
1806;DHT22;901;48.142;11.516;2023-01-09T15:53:23;7.40;99.90
1806;DHT22;901;48.142;11.516;2023-01-09T15:56:22;7.30;99.90
1806;DHT22;901;48.142;11.516;2023-01-09T15:58:51;7.20;99.90
1806;DHT22;901;48.142;11.516;2023-01-09T16:01:26;7.20;99.90
1806;DHT22;901;48.142;11.516;2023-01-09T16:03:56;7.10;99.90
1806;DHT22;901;48.142;11.516;2023-01-09T16:06:25;7.10;99.90
1806;DHT22;901;48.142;11.516;2023-01-09T16:08:54;7.10;99.90
1806;DHT22;901;48.142;11.516;2023-01-09T16:11:26;7.10;99.90
1806;DHT22;901;48.142;11.516;2023-01-09T16:13:55;7.20;99.90
1806;DHT22;901;48.142;11.516;2023-01-09T16:16:24;7.20;99.90
1806;DHT22;901;48.142;11.516;2023-01-09T16:18:54;7.20;99.90
1806;DHT22;901;48.142;11.516;2023-01-09T16:21:33;7.20;99.90
1806;DHT22;901;48.142;11.516;2023-01-09T16:24:02;7.10;99.90
1806;DHT22;901;48.142;11.516;2023-01-09T16:26:33;7.10;99.90
1806;DHT22;901;48.142;11.516;2023-01-09T16:29:25;7.10;99.90
1806;DHT22;901;48.142;11.516;2023-01-09T16:31:58;7.00;99.90
1806;DHT22;901;48.142;11.516;2023-01-09T16:34:25;7.00;99.90
1806;DHT22;901;48.142;11.516;2023-01-09T16:36:52;7.00;99.90
1806;DHT22;901;48.142;11.516;2023-01-09T16:39:19;7.00;99.90
1806;DHT22;901;48.142;11.516;2023-01-09T16:41:47;6.80;99.90
1806;DHT22;901;48.142;11.516;2023-01-09T16:44:31;6.70;99.90
1806;DHT22;901;48.142;11.516;2023-01-09T16:46:58;6.70;99.90
1806;DHT22;901;48.142;11.516;2023-01-09T16:49:25;6.60;99.90
1806;DHT22;901;48.142;11.516;2023-01-09T16:51:53;6.60;99.90
1806;DHT22;901;48.142;11.516;2023-01-09T16:54:21;6.60;99.90
1806;DHT22;901;48.142;11.516;2023-01-09T16:56:51;6.50;99.90